createdAt,value
2022-08-23T00:00:12.941Z,66.47
2022-08-23T00:03:10.212Z,66.47
2022-08-23T00:06:18.220Z,66.57
2022-08-23T00:09:25.582Z,66.57
2022-08-23T00:12:33.742Z,66.57
2022-08-23T00:15:41.900Z,66.67
2022-08-23T00:18:49.592Z,66.80
2022-08-23T00:21:57.755Z,67.11
2022-08-23T00:25:05.797Z,67.21
2022-08-23T00:28:14.769Z,67.54
2022-08-23T00:31:23.108Z,67.54
2022-08-23T00:34:30.989Z,67.64
2022-08-23T00:37:38.709Z,67.74
2022-08-23T00:40:46.974Z,67.84
2022-08-23T00:43:47.516Z,68.08
2022-08-23T00:46:55.143Z,68.08
2022-08-23T00:50:02.424Z,68.18
2022-08-23T00:53:10.055Z,68.28
2022-08-23T00:56:17.681Z,68.58
2022-08-23T00:59:25.326Z,68.58
2022-08-23T01:02:32.974Z,68.78
2022-08-23T01:05:40.461Z,69.12
2022-08-23T01:08:48.541Z,69.21
2022-08-23T01:11:56.049Z,69.42
2022-08-23T01:15:03.621Z,69.52
2022-08-23T01:18:11.529Z,69.75
2022-08-23T01:21:19.144Z,69.95
2022-08-23T01:24:59.891Z,69.95
2022-08-23T01:27:33.268Z,70.15
2022-08-23T01:30:40.496Z,70.15
2022-08-23T01:33:48.586Z,70.26
2022-08-23T01:36:56.487Z,70.36
2022-08-23T01:40:04.016Z,70.66
2022-08-23T01:43:11.609Z,70.97
2022-08-23T01:46:19.259Z,71.06
2022-08-23T01:49:26.902Z,71.40
2022-08-23T01:52:34.782Z,71.60
2022-08-23T01:55:42.273Z,71.91
2022-08-23T01:58:50.005Z,71.91
2022-08-23T02:01:57.286Z,72.11
2022-08-23T02:05:04.916Z,72.31
2022-08-23T02:08:12.403Z,72.64
2022-08-23T02:11:19.887Z,72.75
2022-08-23T02:14:27.358Z,72.95
2022-08-23T02:17:34.600Z,73.15
2022-08-23T02:20:42.671Z,73.35
2022-08-23T02:23:50.402Z,73.58
2022-08-23T02:26:57.988Z,73.79
2022-08-23T02:30:05.855Z,73.99
2022-08-23T02:33:12.995Z,74.29
2022-08-23T02:36:22.912Z,74.40
2022-08-23T02:39:30.692Z,74.63
2022-08-23T02:42:37.890Z,74.84
2022-08-23T02:45:46.099Z,74.93
2022-08-23T02:48:53.300Z,75.13
2022-08-23T02:52:00.901Z,75.24
2022-08-23T02:55:08.812Z,75.34
2022-08-23T02:58:16.344Z,75.57
2022-08-23T03:01:23.823Z,75.78
2022-08-23T03:04:31.540Z,76.08
2022-08-23T03:07:39.385Z,76.42
2022-08-23T03:10:46.925Z,76.62
2022-08-23T03:13:54.507Z,76.82
2022-08-23T03:17:02.488Z,77.13
2022-08-23T03:20:09.660Z,77.23
2022-08-23T03:23:17.640Z,77.33
2022-08-23T03:26:25.641Z,77.43
2022-08-23T03:29:32.882Z,77.53
2022-08-23T03:32:40.832Z,77.64
2022-08-23T03:35:44.874Z,77.64
2022-08-23T03:38:52.935Z,77.64
2022-08-23T03:42:00.855Z,77.64
2022-08-23T03:45:08.066Z,77.84
2022-08-23T03:48:16.169Z,77.94
2022-08-23T03:51:23.874Z,78.04
2022-08-23T03:54:31.559Z,78.14
2022-08-23T03:57:39.650Z,78.34
2022-08-23T04:00:47.212Z,78.48
2022-08-23T04:03:54.672Z,78.68
2022-08-23T04:07:02.546Z,78.78
2022-08-23T04:10:09.944Z,78.78
2022-08-23T04:13:17.562Z,78.78
2022-08-23T04:16:25.197Z,79.08
2022-08-23T04:19:32.926Z,79.29
2022-08-23T04:22:40.587Z,79.39
2022-08-23T04:25:48.255Z,79.39
2022-08-23T04:28:55.758Z,79.15
2022-08-23T04:32:02.900Z,78.95
2022-08-23T04:35:13.681Z,78.95
2022-08-23T04:38:25.177Z,78.95
2022-08-23T04:41:22.083Z,78.85
2022-08-23T04:44:30.074Z,78.85
2022-08-23T04:47:37.295Z,78.75
2022-08-23T04:50:45.365Z,78.85
2022-08-23T04:53:53.397Z,79.15
2022-08-23T04:57:00.737Z,79.25
2022-08-23T05:00:08.669Z,79.46
2022-08-23T05:03:16.345Z,79.25
2022-08-23T05:06:23.889Z,79.11
2022-08-23T05:09:31.800Z,79.32
2022-08-23T05:12:39.362Z,79.11
2022-08-23T05:15:46.932Z,78.81
2022-08-23T05:18:54.422Z,78.71
2022-08-23T05:22:01.865Z,78.47
2022-08-23T05:25:09.413Z,78.37
2022-08-23T05:28:17.326Z,78.17
2022-08-23T05:31:25.216Z,78.03
2022-08-23T05:34:32.442Z,78.13
2022-08-23T05:37:40.278Z,77.89
2022-08-23T05:40:47.891Z,77.28
2022-08-23T05:43:51.081Z,77.35
2022-08-23T05:46:59.061Z,76.84
2022-08-23T05:50:06.363Z,76.95
2022-08-23T05:53:14.413Z,76.71
2022-08-23T05:56:22.321Z,76.40
2022-08-23T05:59:29.526Z,75.76
2022-08-23T06:02:37.197Z,75.26
2022-08-23T06:05:45.237Z,75.16
2022-08-23T06:08:52.399Z,75.16
2022-08-23T06:12:00.163Z,74.52
2022-08-23T06:15:07.400Z,74.42
2022-08-23T06:18:15.412Z,74.12
2022-08-23T06:21:23.552Z,73.78
2022-08-23T06:24:30.753Z,73.58
2022-08-23T06:27:38.616Z,73.55
2022-08-23T06:30:46.420Z,72.74
2022-08-23T06:33:54.001Z,72.61
2022-08-23T06:37:02.337Z,71.70
2022-08-23T06:40:09.919Z,71.56
2022-08-23T06:43:17.607Z,71.36
2022-08-23T06:46:25.474Z,71.26
2022-08-23T06:49:25.149Z,71.33
2022-08-23T06:52:32.865Z,71.13
2022-08-23T06:55:40.753Z,70.50
2022-08-23T06:58:48.764Z,70.39
2022-08-23T07:01:56.479Z,70.29
2022-08-23T07:05:04.277Z,68.85
2022-08-23T07:08:12.243Z,68.22
2022-08-23T07:11:19.478Z,68.12
2022-08-23T07:14:27.605Z,67.08
2022-08-23T07:17:35.690Z,66.15
2022-08-23T07:20:42.920Z,65.15
2022-08-23T07:23:51.072Z,64.72
2022-08-23T07:26:58.391Z,63.61
2022-08-23T07:30:06.341Z,62.28
2022-08-23T07:33:14.285Z,62.78
2022-08-23T07:36:21.916Z,62.65
2022-08-23T07:39:30.038Z,61.12
2022-08-23T07:42:38.205Z,61.22
2022-08-23T07:45:45.609Z,59.30
2022-08-23T07:48:55.132Z,59.39
2022-08-23T07:52:02.772Z,58.06
2022-08-23T07:55:10.311Z,58.73
2022-08-23T07:58:18.404Z,58.94
2022-08-23T08:01:27.407Z,58.61
2022-08-23T08:04:35.207Z,58.41
2022-08-23T08:07:43.246Z,57.68
2022-08-23T08:10:50.508Z,57.78
2022-08-23T08:13:58.509Z,57.86
2022-08-23T08:17:06.310Z,57.86
2022-08-23T08:20:14.012Z,57.13
2022-08-23T08:23:21.983Z,56.53
2022-08-23T08:26:29.561Z,57.13
2022-08-23T08:29:37.105Z,56.30
2022-08-23T08:32:47.424Z,55.58
2022-08-23T08:35:59.634Z,55.98
2022-08-23T08:39:00.775Z,55.88
2022-08-23T08:42:03.929Z,54.86
2022-08-23T08:45:01.831Z,54.96
2022-08-23T08:48:13.389Z,54.26
2022-08-23T08:51:10.623Z,53.76
2022-08-23T08:54:18.734Z,54.96
2022-08-23T08:57:27.699Z,54.33
2022-08-23T09:00:35.791Z,53.94
2022-08-23T09:03:43.407Z,53.34
2022-08-23T09:06:43.228Z,53.94
2022-08-23T09:09:51.267Z,54.01
2022-08-23T09:12:59.060Z,54.31
2022-08-23T09:16:06.645Z,52.72
2022-08-23T09:19:14.724Z,52.42
2022-08-23T09:22:21.875Z,53.09
2022-08-23T09:25:29.835Z,53.88
2022-08-23T09:28:37.559Z,51.07
2022-08-23T09:31:44.884Z,51.05
2022-08-23T09:34:52.880Z,50.16
2022-08-23T09:38:00.338Z,50.85
2022-08-23T09:41:08.571Z,49.96
2022-08-23T09:44:16.722Z,50.65
2022-08-23T09:47:24.094Z,50.93
2022-08-23T09:50:32.066Z,49.02
2022-08-23T09:53:41.112Z,49.71
2022-08-23T09:56:48.988Z,48.42
2022-08-23T09:59:57.561Z,48.13
2022-08-23T10:03:05.250Z,47.73
2022-08-23T10:06:13.582Z,49.11
2022-08-23T10:09:21.573Z,49.21
2022-08-23T10:12:29.566Z,48.87
2022-08-23T10:15:38.900Z,48.97
2022-08-23T10:18:47.877Z,48.08
2022-08-23T10:21:55.865Z,47.46
2022-08-23T10:25:04.335Z,46.79
2022-08-23T10:28:13.680Z,46.37
2022-08-23T10:31:21.786Z,45.65
2022-08-23T10:34:29.850Z,47.36
2022-08-23T10:37:37.894Z,45.75
2022-08-23T10:40:45.852Z,45.14
2022-08-23T10:43:53.670Z,44.13
2022-08-23T10:47:01.800Z,45.21
2022-08-23T10:50:10.307Z,46.01
2022-08-23T10:53:18.119Z,45.39
2022-08-23T10:56:26.018Z,43.71
2022-08-23T10:59:34.035Z,44.82
2022-08-23T11:02:42.921Z,46.11
2022-08-23T11:05:51.005Z,44.97
2022-08-23T11:08:58.856Z,44.38
2022-08-23T11:12:08.342Z,43.47
2022-08-23T11:15:08.938Z,43.77
2022-08-23T11:18:16.921Z,42.85
2022-08-23T11:21:24.929Z,42.05
2022-08-23T11:24:32.869Z,42.44
2022-08-23T11:27:41.294Z,41.65
2022-08-23T11:30:49.359Z,41.65
2022-08-23T11:33:57.288Z,41.65
2022-08-23T11:37:05.849Z,41.95
2022-08-23T11:40:18.151Z,41.04
2022-08-23T11:43:15.780Z,40.84
2022-08-23T11:46:24.115Z,40.45
2022-08-23T11:49:31.681Z,41.53
2022-08-23T11:52:40.134Z,41.43
2022-08-23T11:55:48.305Z,39.95
2022-08-23T11:58:55.927Z,39.97
2022-08-23T12:02:04.876Z,40.80
2022-08-23T12:05:13.200Z,40.01
2022-08-23T12:08:20.770Z,39.89
2022-08-23T12:11:29.353Z,40.76
2022-08-23T12:14:37.013Z,38.85
2022-08-23T12:17:45.475Z,38.73
2022-08-23T12:20:48.461Z,37.65
2022-08-23T12:23:56.167Z,37.35
2022-08-23T12:26:58.628Z,37.26
2022-08-23T12:30:06.600Z,38.54
2022-08-23T12:33:14.621Z,37.83
2022-08-23T12:36:23.041Z,38.30
2022-08-23T12:39:31.023Z,36.11
2022-08-23T12:42:39.157Z,37.49
2022-08-23T12:45:47.156Z,36.90
2022-08-23T12:48:55.515Z,37.51
2022-08-23T12:52:02.930Z,37.91
2022-08-23T12:55:11.457Z,37.89
2022-08-23T12:58:21.492Z,36.10
2022-08-23T13:01:30.030Z,36.77
2022-08-23T13:04:39.205Z,35.90
2022-08-23T13:07:46.776Z,36.22
2022-08-23T13:10:55.859Z,37.12
2022-08-23T13:14:04.017Z,36.99
2022-08-23T13:17:11.631Z,35.71
2022-08-23T13:20:19.430Z,36.00
2022-08-23T13:23:30.132Z,36.11
2022-08-23T13:26:37.582Z,36.00
2022-08-23T13:29:45.615Z,35.99
2022-08-23T13:32:53.497Z,35.99
2022-08-23T13:36:01.409Z,35.20
2022-08-23T13:39:09.740Z,34.39
2022-08-23T13:42:19.022Z,34.80
2022-08-23T13:45:26.913Z,35.38
2022-08-23T13:48:34.784Z,34.49
2022-08-23T13:51:43.055Z,33.49
2022-08-23T13:54:50.964Z,33.89
2022-08-23T13:58:01.338Z,33.00
2022-08-23T14:01:09.828Z,32.71
2022-08-23T14:04:17.478Z,32.53
2022-08-23T14:07:27.322Z,33.43
2022-08-23T14:10:35.825Z,34.70
2022-08-23T14:13:43.435Z,34.03
2022-08-23T14:16:51.868Z,32.76
2022-08-23T14:23:12.398Z,33.61
2022-08-23T14:26:09.722Z,32.92
2022-08-23T14:29:17.289Z,32.53
2022-08-23T14:32:25.531Z,34.39
2022-08-23T14:35:33.685Z,32.72
2022-08-23T14:38:41.697Z,32.72
2022-08-23T14:41:52.190Z,32.21
2022-08-23T14:44:49.658Z,32.15
2022-08-23T14:47:57.765Z,34.33
2022-08-23T14:51:05.881Z,32.45
2022-08-23T14:54:13.412Z,33.75
2022-08-23T14:57:21.736Z,34.05
2022-08-23T15:00:29.805Z,34.92
2022-08-23T15:03:37.852Z,33.62
2022-08-23T15:07:06.862Z,34.10
2022-08-23T15:09:50.890Z,33.20
2022-08-23T15:13:03.077Z,33.59
2022-08-23T15:16:03.292Z,34.38
2022-08-23T15:19:11.553Z,34.30
2022-08-23T15:22:22.096Z,33.61
2022-08-23T15:25:19.256Z,34.61
2022-08-23T15:28:27.155Z,34.49
2022-08-23T15:31:34.349Z,34.22
2022-08-23T15:34:45.550Z,34.90
2022-08-23T15:37:43.353Z,33.80
2022-08-23T15:40:51.033Z,33.43
2022-08-23T15:43:58.695Z,34.01
2022-08-23T15:47:05.916Z,34.31
2022-08-23T15:50:13.546Z,34.23
2022-08-23T15:53:21.524Z,34.03
2022-08-23T15:56:28.750Z,34.03
2022-08-23T15:59:36.861Z,33.92
2022-08-23T16:03:06.384Z,33.03
2022-08-23T16:05:49.444Z,33.72
2022-08-23T16:08:57.306Z,33.02
2022-08-23T16:12:04.788Z,33.13
2022-08-23T16:15:12.519Z,34.54
2022-08-23T16:18:19.955Z,34.66
2022-08-23T16:21:27.920Z,34.75
2022-08-23T16:24:35.671Z,35.94
2022-08-23T16:27:43.413Z,35.23
2022-08-23T16:30:51.405Z,35.33
2022-08-23T16:33:58.786Z,35.74
2022-08-23T16:37:06.682Z,35.05
2022-08-23T16:40:14.325Z,35.44
2022-08-23T16:43:21.470Z,35.46
2022-08-23T16:46:29.543Z,35.76
2022-08-23T16:49:37.934Z,35.97
2022-08-23T16:52:45.836Z,36.88
2022-08-23T16:55:54.048Z,36.60
2022-08-23T16:59:02.427Z,36.32
2022-08-23T17:02:10.809Z,36.12
2022-08-23T17:05:19.731Z,37.21
2022-08-23T17:08:27.645Z,36.93
2022-08-23T17:11:35.292Z,37.74
2022-08-23T17:14:43.624Z,37.85
2022-08-23T17:17:51.745Z,38.75
2022-08-23T17:20:59.667Z,39.24
2022-08-23T17:24:07.195Z,39.26
2022-08-23T17:27:19.210Z,39.67
2022-08-23T17:30:16.335Z,40.37
2022-08-23T17:33:24.875Z,40.29
2022-08-23T17:36:32.913Z,40.78
2022-08-23T17:39:40.174Z,41.39
2022-08-23T17:42:48.806Z,41.10
2022-08-23T17:45:56.608Z,41.31
2022-08-23T17:49:03.856Z,41.41
2022-08-23T17:52:11.885Z,41.83
2022-08-23T17:55:19.142Z,42.72
2022-08-23T17:58:28.713Z,42.85
2022-08-23T18:01:36.723Z,43.76
2022-08-23T18:04:43.979Z,43.85
2022-08-23T18:07:52.036Z,43.88
2022-08-23T18:10:59.368Z,44.20
2022-08-23T18:14:07.208Z,44.79
2022-08-23T18:17:14.960Z,45.41
2022-08-23T18:20:22.371Z,45.81
2022-08-23T18:23:29.825Z,45.93
2022-08-23T18:26:37.923Z,46.92
2022-08-23T18:29:39.484Z,46.84
2022-08-23T18:32:47.408Z,47.05
2022-08-23T18:35:55.268Z,47.05
2022-08-23T18:39:03.192Z,47.27
2022-08-23T18:42:11.444Z,48.16
2022-08-23T18:45:19.099Z,48.26
2022-08-23T18:48:26.874Z,48.49
2022-08-23T18:51:34.604Z,48.98
2022-08-23T18:54:42.935Z,49.28
2022-08-23T18:57:51.060Z,49.80
2022-08-23T19:01:01.415Z,50.60
2022-08-23T19:04:00.407Z,50.30
2022-08-23T19:07:08.350Z,50.52
2022-08-23T19:10:20.319Z,51.22
2022-08-23T19:13:18.993Z,51.03
2022-08-23T19:16:27.071Z,50.92
2022-08-23T19:19:34.823Z,51.62
2022-08-23T19:22:42.535Z,51.65
2022-08-23T19:25:50.016Z,51.75
2022-08-23T19:28:58.165Z,51.95
2022-08-23T19:32:05.793Z,52.84
2022-08-23T19:35:13.549Z,52.87
2022-08-23T19:38:21.307Z,53.27
2022-08-23T19:41:29.063Z,52.97
2022-08-23T19:44:37.273Z,53.59
2022-08-23T19:47:45.255Z,53.99
2022-08-23T19:50:53.084Z,54.19
2022-08-23T19:54:00.938Z,54.09
2022-08-23T19:57:10.339Z,54.91
2022-08-23T20:00:19.859Z,55.62
2022-08-23T20:03:27.210Z,55.51
2022-08-23T20:06:35.131Z,55.91
2022-08-23T20:09:43.252Z,56.04
2022-08-23T20:12:50.827Z,56.74
2022-08-23T20:15:59.259Z,57.26
2022-08-23T20:19:06.494Z,56.99
2022-08-23T20:22:16.208Z,57.39
2022-08-23T20:25:24.695Z,58.12
2022-08-23T20:28:31.953Z,58.92
2022-08-23T20:31:40.233Z,59.12
2022-08-23T20:34:47.584Z,60.05
2022-08-23T20:37:55.241Z,60.55
2022-08-23T20:41:03.374Z,60.75
2022-08-23T20:44:11.729Z,60.58
2022-08-23T20:47:19.417Z,60.98
2022-08-23T20:50:27.739Z,60.98
2022-08-23T20:53:35.898Z,61.21
2022-08-23T20:56:43.590Z,61.51
2022-08-23T20:59:51.439Z,61.71
2022-08-23T21:02:59.062Z,61.44
2022-08-23T21:06:07.123Z,61.44
2022-08-23T21:09:14.722Z,61.64
2022-08-23T21:12:22.467Z,61.84
2022-08-23T21:15:30.158Z,62.04
2022-08-23T21:18:37.842Z,62.17
2022-08-23T21:21:45.529Z,62.87
2022-08-23T21:24:53.555Z,63.78
2022-08-23T21:28:04.233Z,64.07
2022-08-23T21:31:12.110Z,63.28
2022-08-23T21:34:19.695Z,62.97
2022-08-23T21:37:27.847Z,62.37
2022-08-23T21:40:35.936Z,61.67
2022-08-23T21:43:43.377Z,62.17
2022-08-23T21:46:51.400Z,61.54
2022-08-23T21:49:59.289Z,61.24
2022-08-23T21:53:07.287Z,61.64
2022-08-23T21:56:15.004Z,61.04
2022-08-23T21:59:23.112Z,61.14
2022-08-23T22:02:30.831Z,61.24
2022-08-23T22:05:38.891Z,61.44
2022-08-23T22:08:46.345Z,61.74
2022-08-23T22:11:54.550Z,62.27
2022-08-23T22:15:01.777Z,62.77
2022-08-23T22:18:09.409Z,63.40
2022-08-23T22:21:17.731Z,64.84
2022-08-23T22:24:26.294Z,65.44
2022-08-23T22:27:34.251Z,65.14
2022-08-23T22:30:42.598Z,65.04
2022-08-23T22:33:49.852Z,64.04
2022-08-23T22:36:58.025Z,63.60
2022-08-23T22:40:05.835Z,63.40
2022-08-23T22:43:13.018Z,63.50
2022-08-23T22:46:21.012Z,63.50
2022-08-23T22:49:28.759Z,63.60
2022-08-23T22:52:38.278Z,63.60
2022-08-23T22:55:46.192Z,64.01
2022-08-23T22:58:53.716Z,64.54
2022-08-23T23:02:02.170Z,64.54
2022-08-23T23:05:11.544Z,64.54
2022-08-23T23:08:18.949Z,64.24
2022-08-23T23:11:26.810Z,64.14
2022-08-23T23:14:34.929Z,63.93
2022-08-23T23:17:42.223Z,63.70
2022-08-23T23:20:50.381Z,63.60
2022-08-23T23:23:57.786Z,63.50
2022-08-23T23:27:05.563Z,63.31
2022-08-23T23:30:13.403Z,63.40
2022-08-23T23:33:21.207Z,63.50
2022-08-23T23:36:28.878Z,63.93
2022-08-23T23:39:37.057Z,64.34
2022-08-23T23:42:44.788Z,64.54
2022-08-23T23:45:52.594Z,64.74
2022-08-23T23:49:00.412Z,64.97
2022-08-23T23:52:08.178Z,66.17
2022-08-23T23:55:15.770Z,66.41
2022-08-23T23:58:23.383Z,65.80
